Est de San Pedro, Puerto Rico
Current Conditions -  °F | °C
As of 11:53 PM on Monday 20 Oct 2014 (Local Time) from TJNR Reporting Station
Few Clouds Few Clouds  
Wind Chill: 81°   Ceiling: Unl
Heat Index: 86°   Visibility: 10mi
Dew Point: 73°   Wind: 3mph
Humidity: 77%   Direction: 110°ESE
Pressure: 29.99"   Gusts: NA
Location:  18.3304°N, 65.6573°W
Report Text: TJNR 210353Z AUTO 11003KT 10SM FEW024 27/23 A2999 RMK AO2 SLP155 T02720228 403110239
Loading
Personal Weather Stations






























Interactive Weather Map
Tropical Storm Tracking
New forecast layout! Learn more

10-Day Weather Forecast

Advertisements
Track Severe Weather on mobile